sensor_id;sensor_type;location;lat;lon;timestamp;pressure;altitude;pressure_sealevel;temperature;humidity
49122;BME280;35529;44.342;25.944;2022-12-24T00:01:12;100477.16;;;0.93;100.00
49122;BME280;35529;44.342;25.944;2022-12-24T00:03:38;100485.00;;;0.93;100.00
49122;BME280;35529;44.342;25.944;2022-12-24T00:06:08;100486.66;;;0.94;100.00
49122;BME280;35529;44.342;25.944;2022-12-24T00:08:37;100479.63;;;0.95;100.00
49122;BME280;35529;44.342;25.944;2022-12-24T00:11:06;100482.25;;;0.95;100.00
49122;BME280;35529;44.342;25.944;2022-12-24T00:13:37;100482.38;;;0.93;100.00
49122;BME280;35529;44.342;25.944;2022-12-24T00:16:06;100475.50;;;0.92;100.00
49122;BME280;35529;44.342;25.944;2022-12-24T00:18:32;100477.44;;;0.90;100.00
49122;BME280;35529;44.342;25.944;2022-12-24T00:20:58;100481.72;;;0.91;100.00
49122;BME280;35529;44.342;25.944;2022-12-24T00:23:24;100471.50;;;0.88;100.00
49122;BME280;35529;44.342;25.944;2022-12-24T00:25:52;100484.84;;;0.85;100.00
49122;BME280;35529;44.342;25.944;2022-12-24T00:28:22;100473.81;;;0.81;100.00
49122;BME280;35529;44.342;25.944;2022-12-24T00:30:50;100470.38;;;0.81;100.00
49122;BME280;35529;44.342;25.944;2022-12-24T00:33:18;100466.25;;;0.78;100.00
49122;BME280;35529;44.342;25.944;2022-12-24T00:35:49;100465.44;;;0.78;100.00
49122;BME280;35529;44.342;25.944;2022-12-24T00:38:18;100460.88;;;0.80;100.00
49122;BME280;35529;44.342;25.944;2022-12-24T00:40:48;100449.22;;;0.84;100.00
49122;BME280;35529;44.342;25.944;2022-12-24T00:43:19;100449.91;;;0.86;100.00
49122;BME280;35529;44.342;25.944;2022-12-24T00:45:48;100455.69;;;0.90;100.00
49122;BME280;35529;44.342;25.944;2022-12-24T00:48:16;100450.44;;;0.90;100.00
49122;BME280;35529;44.342;25.944;2022-12-24T00:50:42;100455.69;;;0.90;100.00
49122;BME280;35529;44.342;25.944;2022-12-24T00:53:11;100455.13;;;0.86;100.00
49122;BME280;35529;44.342;25.944;2022-12-24T00:55:42;100459.66;;;0.84;100.00
49122;BME280;35529;44.342;25.944;2022-12-24T00:58:11;100462.81;;;0.78;100.00
49122;BME280;35529;44.342;25.944;2022-12-24T01:00:39;100464.72;;;0.76;100.00
49122;BME280;35529;44.342;25.944;2022-12-24T01:03:05;100461.16;;;0.77;100.00
49122;BME280;35529;44.342;25.944;2022-12-24T01:05:33;100463.78;;;0.77;100.00
49122;BME280;35529;44.342;25.944;2022-12-24T01:08:02;100467.88;;;0.70;100.00
49122;BME280;35529;44.342;25.944;2022-12-24T01:10:30;100464.84;;;0.64;100.00
49122;BME280;35529;44.342;25.944;2022-12-24T01:12:56;100472.25;;;0.59;100.00
49122;BME280;35529;44.342;25.944;2022-12-24T01:15:29;100476.91;;;0.56;100.00
49122;BME280;35529;44.342;25.944;2022-12-24T01:18:00;100458.19;;;0.50;100.00
49122;BME280;35529;44.342;25.944;2022-12-24T01:20:29;100450.47;;;0.49;100.00
49122;BME280;35529;44.342;25.944;2022-12-24T01:22:57;100459.97;;;0.50;100.00
49122;BME280;35529;44.342;25.944;2022-12-24T01:25:26;100438.94;;;0.52;100.00
49122;BME280;35529;44.342;25.944;2022-12-24T01:27:54;100448.13;;;0.46;100.00
49122;BME280;35529;44.342;25.944;2022-12-24T01:30:24;100454.59;;;0.42;100.00
49122;BME280;35529;44.342;25.944;2022-12-24T01:32:54;100453.72;;;0.41;100.00
49122;BME280;35529;44.342;25.944;2022-12-24T01:35:20;100460.03;;;0.39;100.00
49122;BME280;35529;44.342;25.944;2022-12-24T01:37:49;100452.47;;;0.36;100.00
49122;BME280;35529;44.342;25.944;2022-12-24T01:40:18;100457.44;;;0.39;100.00
49122;BME280;35529;44.342;25.944;2022-12-24T01:43:04;100446.31;;;0.37;100.00
49122;BME280;35529;44.342;25.944;2022-12-24T01:45:55;100447.84;;;0.39;100.00
49122;BME280;35529;44.342;25.944;2022-12-24T01:53:44;100432.69;;;0.43;100.00
49122;BME280;35529;44.342;25.944;2022-12-24T01:56:12;100430.50;;;0.38;100.00
49122;BME280;35529;44.342;25.944;2022-12-24T01:58:44;100419.47;;;0.35;100.00
49122;BME280;35529;44.342;25.944;2022-12-24T02:01:11;100413.31;;;0.36;100.00
49122;BME280;35529;44.342;25.944;2022-12-24T02:03:37;100415.25;;;0.33;100.00
49122;BME280;35529;44.342;25.944;2022-12-24T02:06:06;100408.91;;;0.36;100.00
49122;BME280;35529;44.342;25.944;2022-12-24T02:08:35;100412.94;;;0.40;100.00
49122;BME280;35529;44.342;25.944;2022-12-24T02:11:15;100409.91;;;0.45;100.00
49122;BME280;35529;44.342;25.944;2022-12-24T02:13:45;100427.78;;;0.49;100.00
49122;BME280;35529;44.342;25.944;2022-12-24T02:16:22;100429.72;;;0.57;100.00
49122;BME280;35529;44.342;25.944;2022-12-24T02:29:21;100407.53;;;0.82;100.00
49122;BME280;35529;44.342;25.944;2022-12-24T02:32:02;100422.81;;;0.87;100.00
49122;BME280;35529;44.342;25.944;2022-12-24T02:34:56;100395.56;;;0.90;100.00
49122;BME280;35529;44.342;25.944;2022-12-24T02:37:30;100394.22;;;0.95;100.00
49122;BME280;35529;44.342;25.944;2022-12-24T02:40:02;100402.34;;;1.02;100.00
49122;BME280;35529;44.342;25.944;2022-12-24T02:42:37;100399.72;;;1.02;100.00
49122;BME280;35529;44.342;25.944;2022-12-24T02:47:36;100407.41;;;1.23;100.00
49122;BME280;35529;44.342;25.944;2022-12-24T02:50:08;100408.25;;;1.24;100.00
49122;BME280;35529;44.342;25.944;2022-12-24T02:52:42;100406.75;;;1.21;100.00
49122;BME280;35529;44.342;25.944;2022-12-24T02:55:17;100414.31;;;1.24;100.00
49122;BME280;35529;44.342;25.944;2022-12-24T03:00:15;100414.72;;;1.29;100.00
49122;BME280;35529;44.342;25.944;2022-12-24T03:03:04;100418.06;;;1.31;100.00
49122;BME280;35529;44.342;25.944;2022-12-24T03:11:08;100413.47;;;1.43;100.00
49122;BME280;35529;44.342;25.944;2022-12-24T03:13:38;100413.75;;;1.40;100.00
49122;BME280;35529;44.342;25.944;2022-12-24T03:16:10;100431.94;;;1.42;100.00
49122;BME280;35529;44.342;25.944;2022-12-24T03:18:41;100432.22;;;1.39;100.00
49122;BME280;35529;44.342;25.944;2022-12-24T03:21:12;100424.22;;;1.30;100.00
49122;BME280;35529;44.342;25.944;2022-12-24T03:23:43;100426.00;;;1.20;100.00
49122;BME280;35529;44.342;25.944;2022-12-24T03:26:14;100437.72;;;1.16;100.00
49122;BME280;35529;44.342;25.944;2022-12-24T03:28:46;100418.16;;;1.10;100.00
49122;BME280;35529;44.342;25.944;2022-12-24T03:31:14;100418.97;;;1.11;100.00
49122;BME280;35529;44.342;25.944;2022-12-24T03:33:43;100413.75;;;1.11;100.00
49122;BME280;35529;44.342;25.944;2022-12-24T03:36:14;100423.13;;;1.04;100.00
49122;BME280;35529;44.342;25.944;2022-12-24T03:38:45;100429.56;;;0.99;100.00
49122;BME280;35529;44.342;25.944;2022-12-24T03:41:13;100431.91;;;1.03;100.00
49122;BME280;35529;44.342;25.944;2022-12-24T03:43:44;100430.97;;;1.04;100.00
49122;BME280;35529;44.342;25.944;2022-12-24T03:46:13;100415.28;;;1.04;100.00
49122;BME280;35529;44.342;25.944;2022-12-24T03:48:41;100427.91;;;0.98;100.00
49122;BME280;35529;44.342;25.944;2022-12-24T03:51:17;100424.22;;;1.01;100.00
49122;BME280;35529;44.342;25.944;2022-12-24T03:53:44;100426.00;;;1.00;100.00
49122;BME280;35529;44.342;25.944;2022-12-24T03:56:12;100420.06;;;0.98;100.00
49122;BME280;35529;44.342;25.944;2022-12-24T03:58:39;100421.31;;;0.94;100.00
49122;BME280;35529;44.342;25.944;2022-12-24T04:01:07;100420.59;;;0.92;100.00
49122;BME280;35529;44.342;25.944;2022-12-24T04:03:33;100425.53;;;0.86;100.00
49122;BME280;35529;44.342;25.944;2022-12-24T04:06:20;100430.78;;;0.86;100.00
49122;BME280;35529;44.342;25.944;2022-12-24T04:08:46;100425.44;;;0.87;100.00
49122;BME280;35529;44.342;25.944;2022-12-24T04:11:13;100430.66;;;0.87;100.00
49122;BME280;35529;44.342;25.944;2022-12-24T04:13:42;100430.38;;;0.90;100.00
49122;BME280;35529;44.342;25.944;2022-12-24T04:16:12;100427.50;;;0.93;100.00
49122;BME280;35529;44.342;25.944;2022-12-24T04:18:41;100422.25;;;0.93;100.00
49122;BME280;35529;44.342;25.944;2022-12-24T04:21:07;100429.28;;;0.93;100.00
49122;BME280;35529;44.342;25.944;2022-12-24T04:23:34;100425.00;;;0.92;100.00
49122;BME280;35529;44.342;25.944;2022-12-24T04:26:02;100438.78;;;0.94;100.00
49122;BME280;35529;44.342;25.944;2022-12-24T04:28:33;100435.63;;;0.90;100.00
49122;BME280;35529;44.342;25.944;2022-12-24T04:31:03;100425.00;;;0.82;100.00
49122;BME280;35529;44.342;25.944;2022-12-24T04:33:34;100433.81;;;0.81;100.00
49122;BME280;35529;44.342;25.944;2022-12-24T04:36:03;100435.47;;;0.82;100.00
49122;BME280;35529;44.342;25.944;2022-12-24T04:38:32;100426.78;;;0.81;100.00
49122;BME280;35529;44.342;25.944;2022-12-24T04:41:02;100419.34;;;0.77;100.00
49122;BME280;35529;44.342;25.944;2022-12-24T04:43:29;100407.91;;;0.68;100.00
49122;BME280;35529;44.342;25.944;2022-12-24T04:46:14;100417.13;;;0.72;100.00
49122;BME280;35529;44.342;25.944;2022-12-24T04:48:45;100423.19;;;0.73;100.00
49122;BME280;35529;44.342;25.944;2022-12-24T04:51:14;100428.16;;;0.76;100.00
49122;BME280;35529;44.342;25.944;2022-12-24T04:53:43;100436.28;;;0.82;100.00
49122;BME280;35529;44.342;25.944;2022-12-24T04:56:14;100438.75;;;0.84;100.00
49122;BME280;35529;44.342;25.944;2022-12-24T04:58:44;100434.63;;;0.81;100.00
49122;BME280;35529;44.342;25.944;2022-12-24T05:01:30;100438.22;;;0.90;100.00
49122;BME280;35529;44.342;25.944;2022-12-24T05:03:59;100447.03;;;0.99;100.00
49122;BME280;35529;44.342;25.944;2022-12-24T05:06:28;100448.13;;;0.96;100.00
49122;BME280;35529;44.342;25.944;2022-12-24T05:08:58;100446.94;;;1.00;100.00
49122;BME280;35529;44.342;25.944;2022-12-24T05:11:30;100438.66;;;1.05;100.00
49122;BME280;35529;44.342;25.944;2022-12-24T05:13:58;100425.31;;;1.08;100.00
49122;BME280;35529;44.342;25.944;2022-12-24T05:16:24;100435.25;;;1.14;100.00
49122;BME280;35529;44.342;25.944;2022-12-24T05:18:55;100435.22;;;1.24;100.00
49122;BME280;35529;44.342;25.944;2022-12-24T05:21:22;100427.00;;;1.39;100.00
49122;BME280;35529;44.342;25.944;2022-12-24T05:23:49;100427.25;;;1.45;100.00
49122;BME280;35529;44.342;25.944;2022-12-24T05:26:50;100421.34;;;1.33;100.00
49122;BME280;35529;44.342;25.944;2022-12-24T05:29:17;100431.53;;;1.17;100.00
49122;BME280;35529;44.342;25.944;2022-12-24T05:31:48;100430.53;;;1.08;100.00
49122;BME280;35529;44.342;25.944;2022-12-24T05:34:16;100427.63;;;1.02;100.00
49122;BME280;35529;44.342;25.944;2022-12-24T05:36:42;100429.88;;;1.06;100.00
49122;BME280;35529;44.342;25.944;2022-12-24T05:39:13;100435.63;;;1.10;100.00
49122;BME280;35529;44.342;25.944;2022-12-24T05:41:40;100445.84;;;1.13;100.00
49122;BME280;35529;44.342;25.944;2022-12-24T05:44:06;100439.91;;;1.11;100.00
49122;BME280;35529;44.342;25.944;2022-12-24T05:46:32;100449.69;;;1.09;100.00
49122;BME280;35529;44.342;25.944;2022-12-24T05:49:01;100451.16;;;1.02;100.00
49122;BME280;35529;44.342;25.944;2022-12-24T05:51:27;100442.09;;;0.96;100.00
49122;BME280;35529;44.342;25.944;2022-12-24T05:53:53;100442.66;;;0.99;100.00
49122;BME280;35529;44.342;25.944;2022-12-24T05:56:24;100443.88;;;0.95;100.00
49122;BME280;35529;44.342;25.944;2022-12-24T05:58:51;100447.03;;;0.89;100.00
49122;BME280;35529;44.342;25.944;2022-12-24T06:01:18;100438.50;;;0.87;100.00
49122;BME280;35529;44.342;25.944;2022-12-24T06:03:49;100439.47;;;0.96;100.00
49122;BME280;35529;44.342;25.944;2022-12-24T06:06:17;100437.97;;;1.03;100.00
49122;BME280;35529;44.342;25.944;2022-12-24T06:08:46;100445.84;;;1.13;100.00
49122;BME280;35529;44.342;25.944;2022-12-24T06:11:14;100443.91;;;1.15;100.00
49122;BME280;35529;44.342;25.944;2022-12-24T06:13:41;100445.41;;;1.17;100.00
49122;BME280;35529;44.342;25.944;2022-12-24T06:16:08;100452.03;;;1.22;100.00
49122;BME280;35529;44.342;25.944;2022-12-24T06:18:35;100455.91;;;1.27;100.00
49122;BME280;35529;44.342;25.944;2022-12-24T06:21:02;100454.91;;;1.28;100.00
49122;BME280;35529;44.342;25.944;2022-12-24T06:23:29;100462.22;;;1.34;100.00
49122;BME280;35529;44.342;25.944;2022-12-24T06:25:58;100468.13;;;1.37;100.00
49122;BME280;35529;44.342;25.944;2022-12-24T06:28:28;100473.66;;;1.43;100.00
49122;BME280;35529;44.342;25.944;2022-12-24T06:30:58;100460.28;;;1.37;100.00
49122;BME280;35529;44.342;25.944;2022-12-24T06:33:27;100456.19;;;1.34;100.00
49122;BME280;35529;44.342;25.944;2022-12-24T06:35:53;100452.16;;;1.30;100.00
49122;BME280;35529;44.342;25.944;2022-12-24T06:38:24;100452.59;;;1.35;100.00
49122;BME280;35529;44.342;25.944;2022-12-24T06:40:52;100440.50;;;1.34;100.00
49122;BME280;35529;44.342;25.944;2022-12-24T06:43:20;100452.72;;;1.33;100.00
49122;BME280;35529;44.342;25.944;2022-12-24T06:45:51;100447.38;;;1.45;100.00
49122;BME280;35529;44.342;25.944;2022-12-24T06:48:17;100450.25;;;1.61;100.00
49122;BME280;35529;44.342;25.944;2022-12-24T06:50:46;100435.22;;;1.73;100.00
49122;BME280;35529;44.342;25.944;2022-12-24T06:53:12;100438.38;;;1.87;100.00
49122;BME280;35529;44.342;25.944;2022-12-24T06:55:40;100432.81;;;1.99;100.00
49122;BME280;35529;44.342;25.944;2022-12-24T06:58:09;100448.28;;;2.03;100.00
49122;BME280;35529;44.342;25.944;2022-12-24T07:00:37;100454.19;;;2.05;100.00
49122;BME280;35529;44.342;25.944;2022-12-24T07:03:05;100460.66;;;2.00;100.00
49122;BME280;35529;44.342;25.944;2022-12-24T07:05:36;100469.91;;;2.05;100.00
49122;BME280;35529;44.342;25.944;2022-12-24T07:08:04;100453.34;;;2.14;100.00
49122;BME280;35529;44.342;25.944;2022-12-24T07:10:35;100453.84;;;2.27;100.00
49122;BME280;35529;44.342;25.944;2022-12-24T07:13:01;100451.59;;;2.42;100.00
49122;BME280;35529;44.342;25.944;2022-12-24T07:15:30;100464.38;;;2.55;100.00
49122;BME280;35529;44.342;25.944;2022-12-24T07:17:56;100461.44;;;2.58;100.00
49122;BME280;35529;44.342;25.944;2022-12-24T07:20:24;100459.06;;;2.65;100.00
49122;BME280;35529;44.342;25.944;2022-12-24T07:22:53;100460.31;;;2.71;100.00
49122;BME280;35529;44.342;25.944;2022-12-24T07:25:21;100458.75;;;2.78;100.00
49122;BME280;35529;44.342;25.944;2022-12-24T07:27:49;100456.94;;;2.78;100.00
49122;BME280;35529;44.342;25.944;2022-12-24T07:30:20;100447.97;;;2.81;100.00
49122;BME280;35529;44.342;25.944;2022-12-24T07:32:46;100453.28;;;2.89;100.00
49122;BME280;35529;44.342;25.944;2022-12-24T07:35:17;100455.19;;;2.97;100.00
49122;BME280;35529;44.342;25.944;2022-12-24T07:37:48;100454.47;;;3.05;100.00
49122;BME280;35529;44.342;25.944;2022-12-24T07:40:19;100459.38;;;3.17;100.00
49122;BME280;35529;44.342;25.944;2022-12-24T07:42:45;100444.19;;;3.29;100.00
49122;BME280;35529;44.342;25.944;2022-12-24T07:45:13;100444.97;;;3.40;100.00
49122;BME280;35529;44.342;25.944;2022-12-24T07:47:39;100449.56;;;3.38;100.00
49122;BME280;35529;44.342;25.944;2022-12-24T07:50:05;100462.66;;;3.38;100.00
49122;BME280;35529;44.342;25.944;2022-12-24T07:52:31;100463.19;;;3.41;100.00
49122;BME280;35529;44.342;25.944;2022-12-24T07:55:02;100452.91;;;3.48;100.00
49122;BME280;35529;44.342;25.944;2022-12-24T07:57:33;100468.06;;;3.54;100.00
49122;BME280;35529;44.342;25.944;2022-12-24T08:00:01;100463.56;;;3.64;100.00
49122;BME280;35529;44.342;25.944;2022-12-24T08:02:28;100471.19;;;3.76;100.00
49122;BME280;35529;44.342;25.944;2022-12-24T08:04:56;100465.47;;;3.80;100.00
49122;BME280;35529;44.342;25.944;2022-12-24T08:07:22;100465.78;;;3.95;100.00
49122;BME280;35529;44.342;25.944;2022-12-24T08:09:51;100462.28;;;4.13;100.00
49122;BME280;35529;44.342;25.944;2022-12-24T08:12:19;100452.16;;;4.26;100.00
49122;BME280;35529;44.342;25.944;2022-12-24T08:14:45;100457.97;;;4.38;100.00
49122;BME280;35529;44.342;25.944;2022-12-24T08:17:15;100455.44;;;4.55;100.00
49122;BME280;35529;44.342;25.944;2022-12-24T08:19:41;100458.13;;;4.79;100.00
49122;BME280;35529;44.342;25.944;2022-12-24T08:22:10;100459.84;;;4.97;100.00
49122;BME280;35529;44.342;25.944;2022-12-24T08:24:36;100462.38;;;5.15;100.00
49122;BME280;35529;44.342;25.944;2022-12-24T08:27:05;100456.13;;;5.24;100.00
49122;BME280;35529;44.342;25.944;2022-12-24T08:29:34;100455.47;;;5.30;100.00
49122;BME280;35529;44.342;25.944;2022-12-24T08:32:00;100458.63;;;5.34;100.00
49122;BME280;35529;44.342;25.944;2022-12-24T08:34:31;100451.50;;;5.26;100.00
49122;BME280;35529;44.342;25.944;2022-12-24T08:36:57;100457.28;;;5.22;100.00
49122;BME280;35529;44.342;25.944;2022-12-24T08:39:23;100449.38;;;5.13;100.00
49122;BME280;35529;44.342;25.944;2022-12-24T08:41:49;100448.34;;;5.06;100.00
49122;BME280;35529;44.342;25.944;2022-12-24T08:44:18;100448.16;;;4.99;100.00
49122;BME280;35529;44.342;25.944;2022-12-24T08:46:44;100455.28;;;5.07;100.00
49122;BME280;35529;44.342;25.944;2022-12-24T08:49:14;100451.19;;;5.21;100.00
49122;BME280;35529;44.342;25.944;2022-12-24T08:51:43;100454.19;;;5.34;100.00
49122;BME280;35529;44.342;25.944;2022-12-24T08:54:13;100454.19;;;5.51;100.00
49122;BME280;35529;44.342;25.944;2022-12-24T08:56:44;100443.19;;;5.72;100.00
49122;BME280;35529;44.342;25.944;2022-12-24T08:59:10;100436.03;;;5.97;100.00
49122;BME280;35529;44.342;25.944;2022-12-24T09:01:37;100440.00;;;6.18;100.00
49122;BME280;35529;44.342;25.944;2022-12-24T09:04:06;100444.44;;;6.26;100.00
49122;BME280;35529;44.342;25.944;2022-12-24T09:06:32;100435.00;;;6.40;100.00
49122;BME280;35529;44.342;25.944;2022-12-24T09:09:02;100438.94;;;6.44;100.00
49122;BME280;35529;44.342;25.944;2022-12-24T09:11:32;100450.28;;;6.52;100.00
49122;BME280;35529;44.342;25.944;2022-12-24T09:14:03;100432.25;;;6.73;100.00
49122;BME280;35529;44.342;25.944;2022-12-24T09:16:29;100434.56;;;6.99;100.00
49122;BME280;35529;44.342;25.944;2022-12-24T09:19:00;100440.22;;;7.19;100.00
49122;BME280;35529;44.342;25.944;2022-12-24T09:21:27;100441.22;;;7.41;100.00
49122;BME280;35529;44.342;25.944;2022-12-24T09:23:57;100436.91;;;7.63;100.00
49122;BME280;35529;44.342;25.944;2022-12-24T09:26:26;100437.50;;;7.74;100.00
49122;BME280;35529;44.342;25.944;2022-12-24T09:28:57;100432.59;;;7.85;100.00
49122;BME280;35529;44.342;25.944;2022-12-24T09:31:26;100446.72;;;7.93;100.00
49122;BME280;35529;44.342;25.944;2022-12-24T09:33:55;100443.06;;;7.79;100.00
49122;BME280;35529;44.342;25.944;2022-12-24T09:36:24;100437.00;;;7.55;100.00
49122;BME280;35529;44.342;25.944;2022-12-24T09:38:54;100442.69;;;7.44;100.00
49122;BME280;35529;44.342;25.944;2022-12-24T09:46:50;100429.34;;;6.91;100.00
49122;BME280;35529;44.342;25.944;2022-12-24T09:49:18;100423.97;;;6.76;100.00
49122;BME280;35529;44.342;25.944;2022-12-24T09:51:53;100421.84;;;6.71;100.00
49122;BME280;35529;44.342;25.944;2022-12-24T09:54:30;100427.69;;;6.58;100.00
49122;BME280;35529;44.342;25.944;2022-12-24T09:57:00;100432.19;;;6.41;100.00
49122;BME280;35529;44.342;25.944;2022-12-24T09:59:42;100430.41;;;6.25;100.00
49122;BME280;35529;44.342;25.944;2022-12-24T10:02:14;100428.13;;;6.22;100.00
49122;BME280;35529;44.342;25.944;2022-12-24T10:04:43;100434.34;;;6.29;100.00
49122;BME280;35529;44.342;25.944;2022-12-24T10:09:51;100438.31;;;6.42;100.00
49122;BME280;35529;44.342;25.944;2022-12-24T10:12:30;100436.56;;;6.57;100.00
49122;BME280;35529;44.342;25.944;2022-12-24T10:20:04;100444.91;;;7.09;100.00
49122;BME280;35529;44.342;25.944;2022-12-24T10:22:43;100445.78;;;7.24;100.00
49122;BME280;35529;44.342;25.944;2022-12-24T10:25:19;100449.97;;;7.42;100.00
49122;BME280;35529;44.342;25.944;2022-12-24T10:27:48;100453.91;;;7.46;100.00
49122;BME280;35529;44.342;25.944;2022-12-24T10:30:21;100446.19;;;7.59;100.00
49122;BME280;35529;44.342;25.944;2022-12-24T10:32:51;100439.16;;;7.75;100.00
49122;BME280;35529;44.342;25.944;2022-12-24T10:35:20;100440.53;;;7.85;100.00
49122;BME280;35529;44.342;25.944;2022-12-24T10:37:50;100444.94;;;7.93;100.00
49122;BME280;35529;44.342;25.944;2022-12-24T10:40:29;100440.81;;;7.91;100.00
49122;BME280;35529;44.342;25.944;2022-12-24T10:42:56;100443.91;;;7.94;100.00
49122;BME280;35529;44.342;25.944;2022-12-24T10:45:24;100436.16;;;7.93;100.00
49122;BME280;35529;44.342;25.944;2022-12-24T10:47:53;100433.69;;;7.91;100.00
49122;BME280;35529;44.342;25.944;2022-12-24T10:50:29;100447.00;;;7.83;100.00
49122;BME280;35529;44.342;25.944;2022-12-24T10:53:04;100440.91;;;7.82;100.00
49122;BME280;35529;44.342;25.944;2022-12-24T10:55:32;100440.44;;;7.79;100.00
49122;BME280;35529;44.342;25.944;2022-12-24T10:58:03;100444.50;;;7.66;100.00
49122;BME280;35529;44.342;25.944;2022-12-24T11:00:34;100445.16;;;7.45;100.00
49122;BME280;35529;44.342;25.944;2022-12-24T11:03:07;100445.84;;;7.39;100.00
49122;BME280;35529;44.342;25.944;2022-12-24T11:05:44;100444.25;;;7.30;100.00
49122;BME280;35529;44.342;25.944;2022-12-24T11:08:16;100441.97;;;7.27;100.00
49122;BME280;35529;44.342;25.944;2022-12-24T11:10:43;100441.88;;;7.20;100.00
49122;BME280;35529;44.342;25.944;2022-12-24T11:13:22;100435.78;;;7.11;100.00
49122;BME280;35529;44.342;25.944;2022-12-24T11:15:59;100433.25;;;6.95;100.00
49122;BME280;35529;44.342;25.944;2022-12-24T11:18:29;100431.34;;;6.88;100.00
49122;BME280;35529;44.342;25.944;2022-12-24T11:20:56;100430.31;;;6.90;100.00
49122;BME280;35529;44.342;25.944;2022-12-24T11:23:25;100428.16;;;6.93;100.00
49122;BME280;35529;44.342;25.944;2022-12-24T11:25:52;100426.81;;;6.97;100.00
49122;BME280;35529;44.342;25.944;2022-12-24T11:28:28;100424.47;;;7.02;100.00
49122;BME280;35529;44.342;25.944;2022-12-24T11:33:26;100433.59;;;7.23;100.00
49122;BME280;35529;44.342;25.944;2022-12-24T11:35:56;100437.63;;;7.34;100.00
49122;BME280;35529;44.342;25.944;2022-12-24T11:38:25;100436.47;;;7.36;100.00
49122;BME280;35529;44.342;25.944;2022-12-24T11:41:04;100436.56;;;7.43;100.00
49122;BME280;35529;44.342;25.944;2022-12-24T11:43:51;100428.25;;;7.54;100.00
49122;BME280;35529;44.342;25.944;2022-12-24T11:46:34;100440.41;;;7.64;100.00
49122;BME280;35529;44.342;25.944;2022-12-24T11:51:39;100434.44;;;7.62;100.00
49122;BME280;35529;44.342;25.944;2022-12-24T11:54:12;100434.94;;;7.65;100.00
49122;BME280;35529;44.342;25.944;2022-12-24T11:56:45;100430.94;;;7.69;100.00
49122;BME280;35529;44.342;25.944;2022-12-24T11:59:21;100425.47;;;7.71;100.00
49122;BME280;35529;44.342;25.944;2022-12-24T12:04:32;100420.19;;;7.86;100.00
49122;BME280;35529;44.342;25.944;2022-12-24T12:07:04;100416.84;;;7.92;100.00
49122;BME280;35529;44.342;25.944;2022-12-24T12:09:32;100425.34;;;8.02;100.00
49122;BME280;35529;44.342;25.944;2022-12-24T12:12:04;100421.94;;;7.94;100.00
49122;BME280;35529;44.342;25.944;2022-12-24T12:14:34;100432.31;;;7.80;100.00
49122;BME280;35529;44.342;25.944;2022-12-24T12:19:33;100417.34;;;7.72;100.00
49122;BME280;35529;44.342;25.944;2022-12-24T12:22:02;100416.44;;;7.65;100.00
49122;BME280;35529;44.342;25.944;2022-12-24T12:24:37;100418.22;;;7.65;100.00
49122;BME280;35529;44.342;25.944;2022-12-24T12:30:12;100413.78;;;7.65;100.00
49122;BME280;35529;44.342;25.944;2022-12-24T12:35:33;100411.78;;;7.67;100.00
49122;BME280;35529;44.342;25.944;2022-12-24T12:38:24;100410.41;;;7.71;100.00
49122;BME280;35529;44.342;25.944;2022-12-24T12:43:55;100406.84;;;7.64;100.00
49122;BME280;35529;44.342;25.944;2022-12-24T12:49:11;100403.44;;;7.79;100.00
49122;BME280;35529;44.342;25.944;2022-12-24T12:54:31;100401.78;;;7.78;100.00
49122;BME280;35529;44.342;25.944;2022-12-24T12:57:06;100401.69;;;7.71;100.00
49122;BME280;35529;44.342;25.944;2022-12-24T13:00:16;100400.88;;;7.70;100.00
49122;BME280;35529;44.342;25.944;2022-12-24T13:05:15;100405.97;;;7.72;100.00
49122;BME280;35529;44.342;25.944;2022-12-24T13:15:56;100415.16;;;7.61;100.00
49122;BME280;35529;44.342;25.944;2022-12-24T13:18:34;100419.47;;;7.54;100.00
49122;BME280;35529;44.342;25.944;2022-12-24T13:21:03;100415.47;;;7.58;100.00
49122;BME280;35529;44.342;25.944;2022-12-24T13:23:29;100419.44;;;7.62;100.00
49122;BME280;35529;44.342;25.944;2022-12-24T13:25:58;100419.06;;;7.65;100.00
49122;BME280;35529;44.342;25.944;2022-12-24T13:30:51;100422.56;;;7.81;100.00
49122;BME280;35529;44.342;25.944;2022-12-24T13:40:54;100410.94;;;8.05;100.00
49122;BME280;35529;44.342;25.944;2022-12-24T13:43:20;100412.66;;;8.13;100.00
49122;BME280;35529;44.342;25.944;2022-12-24T13:45:50;100407.19;;;8.14;100.00
49122;BME280;35529;44.342;25.944;2022-12-24T13:48:29;100402.34;;;8.18;100.00
49122;BME280;35529;44.342;25.944;2022-12-24T13:51:00;100403.81;;;8.20;100.00
49122;BME280;35529;44.342;25.944;2022-12-24T13:53:45;100402.34;;;8.18;100.00
49122;BME280;35529;44.342;25.944;2022-12-24T13:58:46;100398.63;;;8.12;100.00
49122;BME280;35529;44.342;25.944;2022-12-24T14:06:25;100401.50;;;7.87;100.00
49122;BME280;35529;44.342;25.944;2022-12-24T14:08:53;100396.69;;;7.76;100.00
49122;BME280;35529;44.342;25.944;2022-12-24T14:11:24;100403.13;;;7.59;100.00
49122;BME280;35529;44.342;25.944;2022-12-24T14:16:40;100388.22;;;7.43;100.00
49122;BME280;35529;44.342;25.944;2022-12-24T14:19:11;100389.03;;;7.43;100.00
49122;BME280;35529;44.342;25.944;2022-12-24T14:21:52;100382.56;;;7.46;100.00
49122;BME280;35529;44.342;25.944;2022-12-24T14:24:24;100375.31;;;7.48;100.00
49122;BME280;35529;44.342;25.944;2022-12-24T14:26:57;100383.84;;;7.50;100.00
49122;BME280;35529;44.342;25.944;2022-12-24T14:29:29;100373.28;;;7.50;100.00
49122;BME280;35529;44.342;25.944;2022-12-24T14:31:58;100370.81;;;7.48;100.00